Overview Statistics Trail Chart Weather Telemetry Raw packets
 

This is the latest recevied weather packets stored in our database for station/object PU5FJO-13. If no packets are shown the sender has not sent any weather packets the latest 10 day(s).

<< 27 28 29 30 31 32 33 >>
Time Temp. Humidity Pressure Rain* Wind** Luminosity Snow
1777417567 18.33° C 70% 1019.1 hPa - - - -
1777416966 18.33° C 70% 1018.9 hPa - - - -
1777416367 18.33° C 69% 1018.8 hPa - - - -
1777415767 17.78° C 71% 1018.6 hPa - - - -
1777415166 17.78° C 72% 1018.7 hPa - - - -
1777414566 17.78° C 72% 1018.9 hPa - - - -
1777413966 17.78° C 71% 1018.7 hPa - - - -
1777413366 18.33° C 70% 1018.4 hPa - - - -
1777412766 18.89° C 69% 1018.3 hPa - - - -
1777412168 18.89° C 69% 1018.3 hPa - - - -
1777411567 18.89° C 70% 1018.2 hPa - - - -
1777410966 19.44° C 66% 1018.1 hPa - - - -
1777410366 19.44° C 67% 1018 hPa - - - -
1777409769 20.56° C 62% 1018 hPa - - - -
1777409166 20.56° C 58% 1018 hPa - - - -
1777408566 21.11° C 55% 1018 hPa - - - -
1777407966 21.11° C 54% 1018 hPa - - - -
1777407366 21.11° C 53% 1018.1 hPa - - - -
1777406766 21.11° C 52% 1018.2 hPa - - - -
1777406166 21.67° C 52% 1018.1 hPa - - - -
1777405566 21.11° C 52% 1018.2 hPa - - - -
1777404966 21.11° C 52% 1018.2 hPa - - - -
1777404366 21.11° C 52% 1018.2 hPa - - - -
1777403766 21.11° C 52% 1018.2 hPa - - - -
1777403166 21.11° C 51% 1018.1 hPa - - - -

* Rain since midnight (hover to see other rain measurements)
** Current wind speed in m/s (hover to see current wind gust speed)